Howick, Canada
Current Conditions -  °F | °C
As of 8:00 PM on Sunday 21 Dec 2014 (Local Time) from CYUL Reporting Station
Overcast Overcast  
Wind Chill:   Ceiling: 2500
Heat Index: 18°   Visibility: 15mi
Dew Point: 12°   Wind: 8mph
Humidity: 79%   Direction: 50°NE
Pressure: 30.41"   Gusts: NA
Location:  45.18°N, 73.85°W
Report Text: CYUL 220100Z 05007KT 15SM FEW015 OVC025 M08/M11 A3041 RMK SF1SC8 SF TR SLP300
Loading
Personal Weather Stations






























Interactive Weather Map New forecast layout! Learn more

10-Day Weather Forecast

Advertisements
Track Severe Weather on mobile